Ashland, Oregon
Current Conditions -  °F | °C
As of 2:16 PM on Saturday 25 Oct 2014 (Local Time) from KMFR Reporting Station
Light Rain Light Rain  
Wind Chill: 15°   Ceiling: 6500
Heat Index: 15°   Visibility: 10mi
Dew Point: 12°   Wind: 13mph
Humidity: 81%   Direction: 290°WNW
Pressure: 29.71"   Gusts: NA
Location:  42.2°N, 122.71°W
Report Text: KMFR 252116Z 29011KT 10SM -RA FEW048 OVC065 15/12 A2971 RMK AO2 WSHFT 2056 PRESRR P0000 T01500117
Loading
Personal Weather Stations






























Interactive Weather Map
Tropical Storm Tracking
New forecast layout! Learn more

10-Day Weather Forecast

Advertisements
Track Severe Weather on mobile